Flight Track Log - Related Links

Times and Time Zones

All times are in EDT time to prevent confusion due to time zone crossing. See the CPT7773 flight status page for this flight to view local times or setup timezone preferences in your user account.

Time Position Orientation Groundspeed Altitude Reporting Facility
EDT Latitude Longitude Course Direction KTS MPH feet Rate Location/Type
Thu 08:08:04 PM 44.5275 -108.9719 114° Southeast 126 145 6,400  Level Salt Lake Center
Thu 08:09:06 PM 44.5100 -108.9181 114° Southeast 135 155 7,400 871 Climbing Salt Lake Center
Thu 08:10:08 PM 44.4950 -108.8706 114° Southeast 137 158 8,200 871 Climbing Salt Lake Center
Thu 08:11:10 PM 44.4778 -108.8156 114° Southeast 139 160 9,200 774 Climbing Salt Lake Center
Thu 08:12:12 PM 44.4647 -108.7681 111° Southeast 138 159 9,800 871 Climbing Salt Lake Center
Thu 08:13:14 PM 44.4492 -108.7133 112° Southeast 137 158 11,000 629 Climbing Salt Lake Center
Thu 08:14:16 PM 44.4311 -108.6644 117° Southeast 141 162 11,100 49 Climbing Salt Lake Center
Thu 08:15:17 PM 44.3928 -108.6114 135° Southeast 162 186 11,100 49 Level Salt Lake Center
Thu 08:16:19 PM 44.3633 -108.5661 132° Southeast 166 191 11,200  Climbing Salt Lake Center
Thu 08:17:21 PM 44.3303 -108.5128 131° Southeast 164 189 11,100 -48 Descending Salt Lake Center
Thu 08:18:23 PM 44.3000 -108.4681 133° Southeast 165 190 11,100  Level Salt Lake Center
Thu 08:19:25 PM 44.2692 -108.4228 134° Southeast 166 191 11,100  Level Salt Lake Center
Thu 08:20:27 PM 44.2353 -108.3686 131° Southeast 167 192 11,100 -49 Level Salt Lake Center
Thu 08:21:28 PM 44.2028 -108.3225 135° Southeast 169 194 11,000  Descending Salt Lake Center
Thu 08:22:30 PM 44.1514 -108.2875 154° Southeast 179 206 11,100 48 Climbing Salt Lake Center
Thu 08:23:32 PM 44.1103 -108.2494 146° Southeast 183 211 11,100  Level Salt Lake Center
Thu 08:24:34 PM 44.0656 -108.2003 142° Southeast 183 211 11,100  Level Salt Lake Center
Thu 08:25:35 PM 44.0272 -108.1575 141° Southeast 183 211 11,100 -49 Level Salt Lake Center
Thu 08:26:37 PM 43.9992 -108.0914 121° Southeast 178 205 11,000 -48 Descending Salt Lake Center
Thu 08:27:39 PM 43.9769 -108.0339 118° Southeast 179 206 11,000  Level Salt Lake Center
Thu 08:28:41 PM 43.9636 -107.9758 108° East 172 198 11,000  Level Salt Lake Center
Thu 08:29:42 PM 43.9453 -107.9142 112° Southeast 163 188 11,000  Level Salt Lake Center
Thu 08:30:44 PM 43.9194 -107.8669 127° Southeast 162 186 11,000  Level Salt Lake Center
Thu 08:31:46 PM 43.8903 -107.8094 125° Southeast 162 186 11,000  Level Salt Lake Center
Thu 08:32:47 PM 43.8644 -107.7594 126° Southeast 164 189 11,000  Level Salt Lake Center
Thu 08:33:49 PM 43.8347 -107.7014 125° Southeast 165 190 11,000  Level Salt Lake Center
Thu 08:34:51 PM 43.8086 -107.6514 126° Southeast 166 191 11,000  Level Salt Lake Center
Thu 08:35:53 PM 43.7783 -107.5942 126° Southeast 166 191 11,000  Level Salt Lake Center
Thu 08:36:54 PM 43.7531 -107.5433 125° Southeast 166 191 11,000  Level Salt Lake Center
Thu 08:37:56 PM 43.7264 -107.4936 127° Southeast 168 193 11,000  Level Salt Lake Center
Thu 08:38:58 PM 43.6975 -107.4361 125° Southeast 166 191 11,000 -49 Level Salt Lake Center
Thu 08:39:59 PM 43.6736 -107.3875 124° Southeast 162 186 10,900 -49 Descending Salt Lake Center
Thu 08:41:01 PM 43.6433 -107.3322 127° Southeast 162 186 10,900  Level Salt Lake Center
Thu 08:42:03 PM 43.6189 -107.2856 126° Southeast 160 184 10,900  Level Salt Lake Center
Thu 08:43:05 PM 43.5914 -107.2294 124° Southeast 158 182 10,900  Level Salt Lake Center
Thu 08:44:06 PM 43.5667 -107.1822 126° Southeast 159 183 10,900  Level Salt Lake Center
Thu 08:45:08 PM 43.5422 -107.1383 128° Southeast 155 178 10,900 67 Level Salt Lake Center
Thu 08:45:35 PM 43.5322 -107.1125 118° Southeast 155 178 11,000 135 Climbing Denver Center
Thu 08:46:37 PM 43.5025 -107.0575 127° Southeast 158 182 11,100 48 Climbing Denver Center
Thu 08:47:39 PM 43.4778 -107.0078 124° Southeast 162 186 11,100 -48 Level Denver Center
Thu 08:48:41 PM 43.4464 -106.9542 129° Southeast 163 188 11,000 -48 Descending Denver Center
Thu 08:49:43 PM 43.4217 -106.9044 124° Southeast 164 189 11,000  Level Denver Center
Thu 08:50:45 PM 43.3956 -106.8547 126° Southeast 164 189 11,000 -97 Level Denver Center
Thu 08:51:47 PM 43.3656 -106.7969 126° Southeast 168 193 10,800 -293 Descending Denver Center
Thu 08:52:48 PM 43.3375 -106.7439 126° Southeast 177 204 10,400 -439 Descending Denver Center
Thu 08:53:50 PM 43.2933 -106.7017 145° Southeast 184 212 9,900 -387 Descending Denver Center
Thu 08:54:52 PM 43.2517 -106.6731 153° Southeast 179 206 9,600 -339 Descending Denver Center
Thu 08:55:54 PM 43.1997 -106.6456 159° South 178 205 9,200 -387 Descending Denver Center
Thu 08:56:56 PM 43.1553 -106.6258 162° South 177 204 8,800 -339 Descending Denver Center
Thu 08:57:58 PM 43.1031 -106.6058 164° South 175 201 8,500 -390 Descending Denver Center
Thu 08:58:59 PM 43.0572 -106.5892 165° South 176 203 8,000 -537 Descending Denver Center
Thu 09:00:01 PM 43.0036 -106.5667 163° South 178 205 7,400 -532 Descending Denver Center
Thu 09:01:03 PM 42.9606 -106.5469 161° South 177 204 6,900 -290 Descending Denver Center
Thu 09:02:05 PM 42.9317 -106.5286 155° Southeast 153 176 6,800 -97 Descending Denver Center
Thu 09:04:00 PM 42.9080 -106.4644 351° North  Level Estimated
Thu 09:11:00 PM 42.9080 -106.4644 115° Southeast  Level Estimated
Thu 09:12:00 PM 42.9080 -106.4644 127° Southeast  Level Estimated

Login

Don't have an account? Register now (free) for customized features, flight alerts, and more!